Time;durP1;ratioP1;P1;durP2;ratioP2;P2;SDS_P1;SDS_P2;PMS_P1;PMS_P2;Temp;Humidity;BMP_temperature;BMP_pressure;BME280_temperature;BME280_humidity;BME280_pressure;Samples;Min_cycle;Max_cycle;Signal;HPM_P1;HPM_P2
2022/09/12 00:00:14;;;;;;;0.77;0.77;;;;;;;;;;10389143;28;20045;-58
2022/09/12 00:05:15;;;;;;;2.17;0.82;;;;;;;;;;10395048;28;20036;-57
2022/09/12 00:10:16;;;;;;;0.68;0.68;;;;;;;;;;10387582;28;20025;-58
2022/09/12 00:15:17;;;;;;;1.00;0.90;;;;;;;;;;10406935;28;20268;-55
2022/09/12 00:20:18;;;;;;;2.70;0.90;;;;;;;;;;10387297;28;20639;-53
2022/09/12 00:25:18;;;;;;;1.08;0.90;;;;;;;;;;10400989;28;20056;-53
2022/09/12 00:30:19;;;;;;;1.13;0.90;;;;;;;;;;10408221;28;20029;-51
2022/09/12 00:35:20;;;;;;;1.42;0.88;;;;;;;;;;10393374;28;20054;-53
2022/09/12 00:40:20;;;;;;;0.88;0.70;;;;;;;;;;10403455;28;20104;-54
2022/09/12 00:45:28;;;;;;;1.52;0.80;;;;;;;;;;10397981;28;20025;-55
2022/09/12 00:50:31;;;;;;;2.92;0.95;;;;;;;;;;10393617;28;20052;-50
2022/09/12 00:55:39;;;;;;;1.55;0.80;;;;;;;;;;10401164;28;20033;-54
2022/09/12 01:00:40;;;;;;;1.38;0.90;;;;;;;;;;10404049;28;20037;-55
2022/09/12 01:05:54;;;;;;;0.95;0.70;;;;;;;;;;10398333;28;20037;-52
2022/09/12 01:10:56;;;;;;;1.13;0.70;;;;;;;;;;10400184;28;20021;-52
2022/09/12 01:15:57;;;;;;;3.67;0.80;;;;;;;;;;10413420;28;20025;-54
2022/09/12 01:21:38;;;;;;;0.95;0.77;;;;;;;;;;10399024;28;20080;-52
2022/09/12 01:27:03;;;;;;;0.77;0.65;;;;;;;;;;10391012;28;20037;-53
2022/09/12 01:32:23;;;;;;;0.82;0.70;;;;;;;;;;10408174;28;20029;-51
2022/09/12 01:37:53;;;;;;;0.70;0.70;;;;;;;;;;10392421;28;20442;-54
2022/09/12 01:43:17;;;;;;;0.68;0.50;;;;;;;;;;10382374;28;20068;-53
2022/09/12 01:48:35;;;;;;;0.95;0.80;;;;;;;;;;10398144;28;20462;-53
2022/09/12 01:53:45;;;;;;;1.77;0.85;;;;;;;;;;10404932;28;20045;-54
2022/09/12 01:58:57;;;;;;;2.33;0.65;;;;;;;;;;10393435;28;20107;-53
2022/09/12 02:04:07;;;;;;;0.95;0.85;;;;;;;;;;10411883;28;20112;-56
2022/09/12 02:09:18;;;;;;;0.95;0.80;;;;;;;;;;10398247;28;20123;-56
2022/09/12 02:14:32;;;;;;;0.60;0.60;;;;;;;;;;10396131;28;20042;-52
2022/09/12 02:19:41;;;;;;;0.70;0.70;;;;;;;;;;10400054;28;20041;-52
2022/09/12 02:24:44;;;;;;;;;;;;;;;;;;10411255;28;20046;-57
2022/09/12 02:29:45;;;;;;;0.80;0.80;;;;;;;;;;10384828;28;19917;-54
2022/09/12 02:36:01;;;;;;;1.80;0.63;;;;;;;;;;10425712;28;20452;-56
2022/09/12 02:41:02;;;;;;;0.80;0.80;;;;;;;;;;10399283;28;20038;-53
2022/09/12 02:46:07;;;;;;;1.13;0.70;;;;;;;;;;10398495;28;20045;-54
2022/09/12 02:51:08;;;;;;;1.40;0.77;;;;;;;;;;10394564;28;20061;-57
2022/09/12 02:56:18;;;;;;;3.63;0.93;;;;;;;;;;10404770;28;20043;-57
2022/09/12 03:01:48;;;;;;;3.00;1.00;;;;;;;;;;10380764;28;20048;-57
2022/09/12 03:07:12;;;;;;;1.25;0.88;;;;;;;;;;10394806;28;20092;-56
2022/09/12 03:12:33;;;;;;;2.35;0.82;;;;;;;;;;10404693;28;20048;-57
2022/09/12 03:18:03;;;;;;;4.40;0.70;;;;;;;;;;10404733;28;20091;-57
2022/09/12 03:23:16;;;;;;;2.13;1.00;;;;;;;;;;10386537;28;20046;-57
2022/09/12 03:28:19;;;;;;;1.08;0.80;;;;;;;;;;10395497;28;20085;-56
2022/09/12 03:33:23;;;;;;;5.65;0.90;;;;;;;;;;10407746;28;20057;-56
2022/09/12 03:38:23;;;;;;;1.15;0.88;;;;;;;;;;10399349;28;20021;-53
2022/09/12 03:43:24;;;;;;;4.22;1.48;;;;;;;;;;10409926;28;20025;-55
2022/09/12 03:48:25;;;;;;;4.90;0.80;;;;;;;;;;10387506;28;20359;-54
2022/09/12 03:53:25;;;;;;;1.90;0.68;;;;;;;;;;10404257;28;20022;-55
2022/09/12 03:58:29;;;;;;;5.95;0.90;;;;;;;;;;10394213;28;20025;-57
2022/09/12 04:03:30;;;;;;;1.75;0.93;;;;;;;;;;10408332;28;20029;-55
2022/09/12 04:08:30;;;;;;;4.35;1.00;;;;;;;;;;10399011;28;20038;-55
2022/09/12 04:13:33;;;;;;;2.25;0.82;;;;;;;;;;10402239;28;20078;-56
2022/09/12 04:18:34;;;;;;;3.72;0.88;;;;;;;;;;10398904;28;20054;-50
2022/09/12 04:23:35;;;;;;;2.38;1.00;;;;;;;;;;10393821;28;20119;-50
2022/09/12 04:28:37;;;;;;;1.35;0.73;;;;;;;;;;10399634;28;20563;-54
2022/09/12 04:33:38;;;;;;;5.45;0.90;;;;;;;;;;10396837;28;20400;-51
2022/09/12 04:38:39;;;;;;;4.60;0.95;;;;;;;;;;10406214;28;20109;-49
2022/09/12 04:43:41;;;;;;;1.20;0.75;;;;;;;;;;10400038;28;20390;-52
2022/09/12 04:48:42;;;;;;;2.33;0.90;;;;;;;;;;10402414;28;20104;-51
2022/09/12 04:53:48;;;;;;;3.92;1.00;;;;;;;;;;10400191;28;20033;-50
2022/09/12 04:58:49;;;;;;;1.75;0.88;;;;;;;;;;10416047;28;20470;-50
2022/09/12 05:03:50;;;;;;;4.80;1.17;;;;;;;;;;10409129;28;20045;-50
2022/09/12 05:08:52;;;;;;;11.98;0.95;;;;;;;;;;10412678;28;20098;-51
2022/09/12 05:13:53;;;;;;;6.78;1.27;;;;;;;;;;10404735;28;20071;-56
2022/09/12 05:18:56;;;;;;;6.60;0.90;;;;;;;;;;10390044;28;20087;-57
2022/09/12 05:24:00;;;;;;;0.63;0.60;;;;;;;;;;10391787;28;20448;-56
2022/09/12 05:29:03;;;;;;;1.40;0.88;;;;;;;;;;10383604;28;20041;-57
2022/09/12 05:34:05;;;;;;;1.70;0.93;;;;;;;;;;10393717;28;20026;-57
2022/09/12 05:39:06;;;;;;;4.35;1.10;;;;;;;;;;10398066;28;20043;-57
2022/09/12 05:44:12;;;;;;;2.25;0.90;;;;;;;;;;10396672;28;20037;-57
2022/09/12 05:49:13;;;;;;;11.55;1.23;;;;;;;;;;10387712;28;20030;-60
2022/09/12 05:54:18;;;;;;;2.45;1.35;;;;;;;;;;10399810;28;20017;-53
2022/09/12 05:59:20;;;;;;;4.43;1.38;;;;;;;;;;10393672;28;20612;-57
2022/09/12 06:04:22;;;;;;;2.78;1.20;;;;;;;;;;10378682;28;20053;-57
2022/09/12 06:09:24;;;;;;;18.92;1.52;;;;;;;;;;10397468;28;20041;-55
2022/09/12 06:14:25;;;;;;;2.08;1.30;;;;;;;;;;10412506;28;20040;-53
2022/09/12 06:19:26;;;;;;;4.53;0.90;;;;;;;;;;10412616;28;20029;-54
2022/09/12 06:24:27;;;;;;;1.77;1.20;;;;;;;;;;10400112;28;20065;-53
2022/09/12 06:29:28;;;;;;;2.95;1.00;;;;;;;;;;10398969;28;20032;-56
2022/09/12 06:34:29;;;;;;;1.92;0.98;;;;;;;;;;10399036;28;20030;-56
2022/09/12 06:39:31;;;;;;;1.63;1.00;;;;;;;;;;10391604;28;20029;-56
2022/09/12 06:44:31;;;;;;;2.72;0.88;;;;;;;;;;10402841;28;20022;-55
2022/09/12 06:49:32;;;;;;;2.45;1.27;;;;;;;;;;10389250;28;20017;-53
2022/09/12 06:54:33;;;;;;;1.85;1.08;;;;;;;;;;10397074;28;20079;-55
2022/09/12 06:59:34;;;;;;;1.48;1.10;;;;;;;;;;10411313;28;20036;-56
2022/09/12 07:04:36;;;;;;;1.23;0.90;;;;;;;;;;10395304;28;20079;-55
2022/09/12 07:09:36;;;;;;;7.28;1.02;;;;;;;;;;10394900;28;20084;-51
2022/09/12 07:14:37;;;;;;;5.45;1.08;;;;;;;;;;10410532;28;20091;-51
2022/09/12 07:19:37;;;;;;;5.90;1.23;;;;;;;;;;10383244;28;20029;-54
2022/09/12 07:24:38;;;;;;;4.53;1.50;;;;;;;;;;10382466;28;20053;-56
2022/09/12 07:29:39;;;;;;;1.40;1.10;;;;;;;;;;10383731;28;20026;-55
2022/09/12 07:34:40;;;;;;;4.47;1.35;;;;;;;;;;10394236;28;20025;-57
2022/09/12 07:39:41;;;;;;;1.73;1.13;;;;;;;;;;10385410;28;20061;-56
2022/09/12 07:44:41;;;;;;;4.70;1.70;;;;;;;;;;10385585;28;20057;-52
2022/09/12 07:49:42;;;;;;;2.95;1.33;;;;;;;;;;10388326;28;20100;-55
2022/09/12 07:54:43;;;;;;;3.55;1.42;;;;;;;;;;10376190;28;20488;-55
2022/09/12 07:59:44;;;;;;;4.63;1.85;;;;;;;;;;10399671;28;20087;-56
2022/09/12 08:04:46;;;;;;;2.25;1.30;;;;;;;;;;10394436;28;20037;-54
2022/09/12 08:09:47;;;;;;;3.00;1.60;;;;;;;;;;10395715;28;20280;-56
2022/09/12 08:14:47;;;;;;;4.20;1.13;;;;;;;;;;10396827;28;20279;-57
2022/09/12 08:19:48;;;;;;;6.22;1.42;;;;;;;;;;10393017;28;20029;-53
2022/09/12 08:24:49;;;;;;;4.22;1.10;;;;;;;;;;10367220;28;20049;-56
2022/09/12 08:29:52;;;;;;;6.97;1.77;;;;;;;;;;10379849;28;20493;-56
2022/09/12 08:34:53;;;;;;;19.35;2.53;;;;;;;;;;10380961;28;20474;-56
2022/09/12 08:39:55;;;;;;;14.02;2.65;;;;;;;;;;10380695;28;20056;-53
2022/09/12 08:45:16;;;;;;;9.90;1.23;;;;;;;;;;10384586;28;20485;-52
2022/09/12 08:50:20;;;;;;;6.05;1.00;;;;;;;;;;10396194;28;20029;-53
2022/09/12 08:55:34;;;;;;;3.20;1.08;;;;;;;;;;10390380;28;20041;-56
2022/09/12 09:01:01;;;;;;;3.90;1.25;;;;;;;;;;10382563;28;20018;-51
2022/09/12 09:06:25;;;;;;;2.25;1.10;;;;;;;;;;10365677;28;20478;-55
2022/09/12 09:11:44;;;;;;;4.07;1.00;;;;;;;;;;10393092;28;20038;-55
2022/09/12 09:16:49;;;;;;;4.22;1.00;;;;;;;;;;10396620;28;20068;-56
2022/09/12 09:21:56;;;;;;;2.05;1.00;;;;;;;;;;10387771;28;20512;-55
2022/09/12 09:27:06;;;;;;;9.10;1.38;;;;;;;;;;10399517;28;20034;-56
2022/09/12 09:32:37;;;;;;;4.95;0.80;;;;;;;;;;10414149;28;20065;-52
2022/09/12 09:37:58;;;;;;;1.45;0.98;;;;;;;;;;10413803;28;20053;-53
2022/09/12 09:43:03;;;;;;;5.88;1.23;;;;;;;;;;10399691;28;20358;-56
2022/09/12 09:48:09;;;;;;;4.82;0.95;;;;;;;;;;10395850;28;20371;-55
2022/09/12 09:53:26;;;;;;;2.15;0.90;;;;;;;;;;10407496;28;20026;-53
2022/09/12 09:58:32;;;;;;;1.35;0.80;;;;;;;;;;10380005;28;20374;-56
2022/09/12 10:03:54;;;;;;;3.63;1.00;;;;;;;;;;10388899;28;20169;-56
2022/09/12 10:09:13;;;;;;;2.53;1.13;;;;;;;;;;10384849;28;20030;-54
2022/09/12 10:14:40;;;;;;;3.30;0.95;;;;;;;;;;10399401;28;20026;-57
2022/09/12 10:19:41;;;;;;;6.20;0.98;;;;;;;;;;10384966;28;20113;-54
2022/09/12 10:24:51;;;;;;;1.67;0.90;;;;;;;;;;10387113;28;20053;-56
2022/09/12 10:29:59;;;;;;;0.73;0.70;;;;;;;;;;10397311;28;20120;-55
2022/09/12 10:35:17;;;;;;;1.38;0.75;;;;;;;;;;10382755;28;20033;-56
2022/09/12 10:40:33;;;;;;;3.10;0.87;;;;;;;;;;10396855;28;20025;-55
2022/09/12 10:45:36;;;;;;;2.08;1.15;;;;;;;;;;10377937;28;20097;-53
2022/09/12 10:50:43;;;;;;;6.03;0.82;;;;;;;;;;10383034;28;20026;-51
2022/09/12 10:56:02;;;;;;;1.52;1.10;;;;;;;;;;10383905;28;20432;-53
2022/09/12 11:01:43;;;;;;;1.17;0.90;;;;;;;;;;10384070;28;20061;-53
2022/09/12 11:06:59;;;;;;;1.60;0.75;;;;;;;;;;10402609;28;20021;-50
2022/09/12 11:12:34;;;;;;;0.80;0.80;;;;;;;;;;10394303;28;20536;-52
2022/09/12 11:17:55;;;;;;;2.20;1.02;;;;;;;;;;10401732;28;20041;-53
2022/09/12 11:23:31;;;;;;;1.67;0.88;;;;;;;;;;10382138;28;20429;-55
2022/09/12 11:28:56;;;;;;;3.72;0.90;;;;;;;;;;10386009;28;20025;-55
2022/09/12 11:33:59;;;;;;;1.45;0.80;;;;;;;;;;10395645;28;20091;-54
2022/09/12 11:39:27;;;;;;;1.75;0.75;;;;;;;;;;10389028;28;20034;-56
2022/09/12 11:44:36;;;;;;;0.70;0.70;;;;;;;;;;10384996;28;20101;-56
2022/09/12 11:49:48;;;;;;;4.20;1.20;;;;;;;;;;10366429;28;20030;-56
2022/09/12 11:55:05;;;;;;;1.00;0.90;;;;;;;;;;10380882;28;20462;-56
2022/09/12 12:00:22;;;;;;;0.70;0.70;;;;;;;;;;10401595;28;20727;-55
2022/09/12 12:05:41;;;;;;;4.55;0.80;;;;;;;;;;10372085;28;20314;-57
2022/09/12 12:10:49;;;;;;;1.10;0.73;;;;;;;;;;10384759;28;20054;-56
2022/09/12 12:15:55;;;;;;;0.73;0.70;;;;;;;;;;10381265;28;20033;-56
2022/09/12 12:21:14;;;;;;;3.10;1.10;;;;;;;;;;10390679;28;20029;-56
2022/09/12 12:26:39;;;;;;;0.85;0.70;;;;;;;;;;10367233;28;20045;-55
2022/09/12 12:31:59;;;;;;;0.85;0.75;;;;;;;;;;10367761;28;20037;-56
2022/09/12 12:37:18;;;;;;;0.73;0.70;;;;;;;;;;10393975;28;20036;-54
2022/09/12 12:42:33;;;;;;;0.88;0.70;;;;;;;;;;10375096;28;20026;-56
2022/09/12 12:47:37;;;;;;;3.33;0.90;;;;;;;;;;10372046;28;20038;-56
2022/09/12 12:52:49;;;;;;;1.00;1.00;;;;;;;;;;10381216;28;20108;-55
2022/09/12 12:57:53;;;;;;;1.30;0.98;;;;;;;;;;10393473;28;20096;-52
2022/09/12 13:03:03;;;;;;;1.52;0.77;;;;;;;;;;10412245;28;20026;-53
2022/09/12 13:08:25;;;;;;;0.70;0.70;;;;;;;;;;10404459;28;20017;-54
2022/09/12 13:13:51;;;;;;;2.95;0.70;;;;;;;;;;10400613;28;20056;-55
2022/09/12 13:18:52;;;;;;;2.20;0.93;;;;;;;;;;10393065;28;20026;-52
2022/09/12 13:24:12;;;;;;;1.33;0.90;;;;;;;;;;10387499;28;20042;-54
2022/09/12 13:29:22;;;;;;;3.92;0.93;;;;;;;;;;10387120;28;20026;-53
2022/09/12 13:34:30;;;;;;;4.70;1.05;;;;;;;;;;10386881;28;20033;-54
2022/09/12 13:40:55;;;;;;;2.05;1.00;;;;;;;;;;10395287;28;20109;-52
2022/09/12 13:45:56;;;;;;;2.58;1.10;;;;;;;;;;10380879;28;20444;-52
2022/09/12 13:51:00;;;;;;;3.33;1.20;;;;;;;;;;10407320;28;20072;-53
2022/09/12 13:56:02;;;;;;;2.85;1.08;;;;;;;;;;10393257;28;20076;-56
2022/09/12 14:01:08;;;;;;;1.05;0.95;;;;;;;;;;10406635;28;20136;-55
2022/09/12 14:06:10;;;;;;;2.05;1.15;;;;;;;;;;10406475;28;20052;-56
2022/09/12 14:11:15;;;;;;;1.10;1.00;;;;;;;;;;10406227;28;20131;-56
2022/09/12 14:16:15;;;;;;;0.90;0.90;;;;;;;;;;10382082;28;20045;-54
2022/09/12 14:21:33;;;;;;;2.78;1.00;;;;;;;;;;10386668;28;20037;-56
2022/09/12 14:26:37;;;;;;;2.75;1.25;;;;;;;;;;10398551;28;20044;-53
2022/09/12 14:31:38;;;;;;;1.08;1.00;;;;;;;;;;10384565;28;20047;-54
2022/09/12 14:36:51;;;;;;;1.90;1.00;;;;;;;;;;10410710;28;20036;-56
2022/09/12 14:42:05;;;;;;;1.58;1.00;;;;;;;;;;10395595;28;20033;-55
2022/09/12 14:47:22;;;;;;;0.95;0.95;;;;;;;;;;10374521;28;20115;-55
2022/09/12 14:52:28;;;;;;;1.10;1.00;;;;;;;;;;10410567;28;20029;-55
2022/09/12 14:57:41;;;;;;;2.58;1.08;;;;;;;;;;10411840;28;20021;-55
2022/09/12 15:02:45;;;;;;;1.40;1.00;;;;;;;;;;10396874;28;20033;-56
2022/09/12 15:08:00;;;;;;;1.35;0.93;;;;;;;;;;10400167;28;20029;-52
2022/09/12 15:13:15;;;;;;;1.85;0.90;;;;;;;;;;10397118;28;20087;-57
2022/09/12 15:18:17;;;;;;;2.42;1.00;;;;;;;;;;10371749;28;20363;-51
2022/09/12 15:23:34;;;;;;;1.42;0.93;;;;;;;;;;10381507;28;20049;-52
2022/09/12 15:28:35;;;;;;;7.78;1.25;;;;;;;;;;10391733;28;20018;-54
2022/09/12 15:33:35;;;;;;;3.92;1.20;;;;;;;;;;10396050;28;20040;-54
2022/09/12 15:38:36;;;;;;;1.23;1.10;;;;;;;;;;10368902;28;20030;-53
2022/09/12 15:43:36;;;;;;;1.30;1.00;;;;;;;;;;10397629;28;20051;-52
2022/09/12 15:48:37;;;;;;;4.97;1.38;;;;;;;;;;10385282;28;20026;-51
2022/09/12 15:53:38;;;;;;;0.82;0.82;;;;;;;;;;10369375;28;20495;-50
2022/09/12 15:58:39;;;;;;;1.15;1.13;;;;;;;;;;10368508;28;20129;-51
2022/09/12 16:03:40;;;;;;;2.47;0.80;;;;;;;;;;10389591;28;20033;-51
2022/09/12 16:08:41;;;;;;;1.77;0.85;;;;;;;;;;10387477;28;20022;-51
2022/09/12 16:13:41;;;;;;;2.22;0.90;;;;;;;;;;10380949;28;20025;-50
2022/09/12 16:18:42;;;;;;;1.85;0.80;;;;;;;;;;10387232;28;20025;-51
2022/09/12 16:23:44;;;;;;;5.00;0.80;;;;;;;;;;10400047;28;20055;-53
2022/09/12 16:28:45;;;;;;;2.20;0.90;;;;;;;;;;10405873;28;20029;-50
2022/09/12 16:33:45;;;;;;;3.33;0.90;;;;;;;;;;10405319;28;20030;-49
2022/09/12 16:38:50;;;;;;;2.05;1.08;;;;;;;;;;10400934;28;20029;-57
2022/09/12 16:43:51;;;;;;;1.30;0.80;;;;;;;;;;10401372;28;20127;-57
2022/09/12 16:48:53;;;;;;;1.00;0.90;;;;;;;;;;10409774;28;20025;-56
2022/09/12 16:53:54;;;;;;;1.33;0.80;;;;;;;;;;10412142;28;20505;-56
2022/09/12 16:58:55;;;;;;;2.25;0.60;;;;;;;;;;10392191;28;20026;-57
2022/09/12 17:03:57;;;;;;;1.65;0.93;;;;;;;;;;10387810;28;20030;-56
2022/09/12 17:09:00;;;;;;;1.75;0.90;;;;;;;;;;10378529;28;20025;-57
2022/09/12 17:14:02;;;;;;;1.20;0.90;;;;;;;;;;10383093;28;20351;-57
2022/09/12 17:19:04;;;;;;;4.30;1.00;;;;;;;;;;10415194;28;20495;-56
2022/09/12 17:24:05;;;;;;;3.20;1.08;;;;;;;;;;10393471;28;20041;-56
2022/09/12 17:29:05;;;;;;;4.65;1.20;;;;;;;;;;10424551;28;20017;-57
2022/09/12 17:34:06;;;;;;;1.40;1.08;;;;;;;;;;10400468;28;20032;-56
2022/09/12 17:39:06;;;;;;;1.25;1.00;;;;;;;;;;10416341;28;20484;-57
2022/09/12 17:44:11;;;;;;;6.72;1.25;;;;;;;;;;10422020;28;20059;-55
2022/09/12 17:49:19;;;;;;;2.38;1.23;;;;;;;;;;10386358;28;20111;-56
2022/09/12 17:54:21;;;;;;;1.25;0.95;;;;;;;;;;10430277;28;20041;-56
2022/09/12 17:59:23;;;;;;;1.20;1.10;;;;;;;;;;10412075;28;20036;-56
2022/09/12 18:04:25;;;;;;;2.75;1.00;;;;;;;;;;10416495;28;20094;-57
2022/09/12 18:09:27;;;;;;;2.67;1.40;;;;;;;;;;10430720;28;20040;-56
2022/09/12 18:14:28;;;;;;;3.10;1.48;;;;;;;;;;10419556;28;20033;-55
2022/09/12 18:19:28;;;;;;;3.20;1.92;;;;;;;;;;10406483;28;20038;-56
2022/09/12 18:24:29;;;;;;;4.78;1.90;;;;;;;;;;10388312;28;20046;-56
2022/09/12 18:29:30;;;;;;;7.63;2.17;;;;;;;;;;10396825;28;20026;-57
2022/09/12 18:34:30;;;;;;;4.32;1.52;;;;;;;;;;10397357;28;20116;-56
2022/09/12 18:39:37;;;;;;;2.42;1.75;;;;;;;;;;10384431;28;20488;-56
2022/09/12 18:44:38;;;;;;;7.22;1.60;;;;;;;;;;10393504;28;20038;-57
2022/09/12 18:49:38;;;;;;;1.77;1.35;;;;;;;;;;10384379;28;20533;-58
2022/09/12 18:54:39;;;;;;;7.35;1.52;;;;;;;;;;10380704;28;20029;-59
2022/09/12 18:59:39;;;;;;;3.65;1.70;;;;;;;;;;10390563;28;20028;-59
2022/09/12 19:04:40;;;;;;;3.72;1.80;;;;;;;;;;10391443;28;20025;-57
2022/09/12 19:09:40;;;;;;;5.25;1.60;;;;;;;;;;10392320;28;20307;-57
2022/09/12 19:14:41;;;;;;;5.90;1.38;;;;;;;;;;10394795;28;20042;-60
2022/09/12 19:19:42;;;;;;;2.47;1.60;;;;;;;;;;10387831;28;20378;-58
2022/09/12 19:24:42;;;;;;;3.42;1.63;;;;;;;;;;10389501;28;20053;-51
2022/09/12 19:29:43;;;;;;;3.03;1.80;;;;;;;;;;10387238;28;20034;-50
2022/09/12 19:34:44;;;;;;;3.05;1.50;;;;;;;;;;10387301;28;20033;-57
2022/09/12 19:39:44;;;;;;;1.98;1.30;;;;;;;;;;10376837;28;20038;-50
2022/09/12 19:44:45;;;;;;;1.98;1.42;;;;;;;;;;10390440;28;20485;-50
2022/09/12 19:49:46;;;;;;;1.90;1.27;;;;;;;;;;10376569;28;20366;-50
2022/09/12 19:54:48;;;;;;;2.38;1.20;;;;;;;;;;10393367;28;20183;-55
2022/09/12 19:59:49;;;;;;;3.53;1.52;;;;;;;;;;10380482;28;20443;-54
2022/09/12 20:04:50;;;;;;;1.88;1.40;;;;;;;;;;10368690;28;20121;-57
2022/09/12 20:09:51;;;;;;;2.60;1.52;;;;;;;;;;10397132;28;20029;-49
2022/09/12 20:14:51;;;;;;;2.10;1.30;;;;;;;;;;10391682;28;20424;-49
2022/09/12 20:19:52;;;;;;;6.60;1.30;;;;;;;;;;10379070;28;20026;-57
2022/09/12 20:24:52;;;;;;;2.15;1.30;;;;;;;;;;10377500;28;20060;-49
2022/09/12 20:29:53;;;;;;;1.40;1.15;;;;;;;;;;10385911;28;20075;-54
2022/09/12 20:34:55;;;;;;;2.40;1.30;;;;;;;;;;10387142;28;20033;-49
2022/09/12 20:39:55;;;;;;;3.28;1.55;;;;;;;;;;10406782;28;20056;-55
2022/09/12 20:44:56;;;;;;;2.08;1.35;;;;;;;;;;10385639;28;20032;-49
2022/09/12 20:49:57;;;;;;;2.47;1.40;;;;;;;;;;10373793;28;20037;-49
2022/09/12 20:54:57;;;;;;;6.15;1.42;;;;;;;;;;10384431;28;20456;-51
2022/09/12 20:59:58;;;;;;;3.90;1.50;;;;;;;;;;10382228;28;20033;-57
2022/09/12 21:04:59;;;;;;;2.47;1.45;;;;;;;;;;10376800;28;20034;-58
2022/09/12 21:09:59;;;;;;;6.20;1.40;;;;;;;;;;10384932;28;20033;-50
2022/09/12 21:15:00;;;;;;;1.67;1.23;;;;;;;;;;10386772;28;20017;-49
2022/09/12 21:20:01;;;;;;;4.55;1.38;;;;;;;;;;10382392;28;20105;-53
2022/09/12 21:25:02;;;;;;;3.45;1.58;;;;;;;;;;10381227;28;20341;-54
2022/09/12 21:30:04;;;;;;;4.90;1.65;;;;;;;;;;10404279;28;20030;-54
2022/09/12 21:35:05;;;;;;;3.03;2.00;;;;;;;;;;10378529;28;20073;-53
2022/09/12 21:40:06;;;;;;;5.22;1.73;;;;;;;;;;10394287;28;20018;-54
2022/09/12 21:45:07;;;;;;;4.88;2.35;;;;;;;;;;10402471;28;20072;-49
2022/09/12 21:50:09;;;;;;;5.18;1.92;;;;;;;;;;10388405;28;20049;-53
2022/09/12 21:55:11;;;;;;;12.98;2.03;;;;;;;;;;10390888;28;20466;-56
2022/09/12 22:00:15;;;;;;;8.90;1.83;;;;;;;;;;10396589;28;20145;-51
2022/09/12 22:05:21;;;;;;;18.70;2.05;;;;;;;;;;10391988;28;20551;-54
2022/09/12 22:10:22;;;;;;;17.90;2.20;;;;;;;;;;10393262;28;20029;-53
2022/09/12 22:15:24;;;;;;;22.05;2.05;;;;;;;;;;10391468;28;20448;-57
2022/09/12 22:20:25;;;;;;;25.20;3.08;;;;;;;;;;10381024;28;20053;-57
2022/09/12 22:25:26;;;;;;;5.18;2.03;;;;;;;;;;10379325;28;20485;-57
2022/09/12 22:30:29;;;;;;;15.90;1.98;;;;;;;;;;10388523;28;20025;-55
2022/09/12 22:35:33;;;;;;;6.68;1.60;;;;;;;;;;10382310;28;20032;-52
2022/09/12 22:40:34;;;;;;;17.90;2.25;;;;;;;;;;10405118;28;20729;-52
2022/09/12 22:45:34;;;;;;;7.95;2.20;;;;;;;;;;10377791;28;20033;-51
2022/09/12 22:50:35;;;;;;;7.57;2.00;;;;;;;;;;10388414;28;20022;-55
2022/09/12 22:55:36;;;;;;;14.07;2.10;;;;;;;;;;10402010;28;20409;-54
2022/09/12 23:00:37;;;;;;;14.38;2.53;;;;;;;;;;10386123;28;20037;-55
2022/09/12 23:05:37;;;;;;;13.15;1.85;;;;;;;;;;10377251;28;20032;-54
2022/09/12 23:10:38;;;;;;;12.43;1.95;;;;;;;;;;10397206;28;20040;-55
2022/09/12 23:15:39;;;;;;;7.45;2.10;;;;;;;;;;10392748;28;20040;-57
2022/09/12 23:20:40;;;;;;;3.65;1.67;;;;;;;;;;10395259;28;20049;-53
2022/09/12 23:25:40;;;;;;;8.65;2.15;;;;;;;;;;10390360;28;20500;-58
2022/09/12 23:30:41;;;;;;;5.18;1.85;;;;;;;;;;10391449;28;20366;-57
2022/09/12 23:35:42;;;;;;;6.10;1.65;;;;;;;;;;10383489;28;20048;-57
2022/09/12 23:40:43;;;;;;;8.68;1.92;;;;;;;;;;10387283;28;20104;-56
2022/09/12 23:45:44;;;;;;;5.82;1.83;;;;;;;;;;10379939;28;20025;-57
2022/09/12 23:50:47;;;;;;;9.57;2.20;;;;;;;;;;10381633;28;20310;-53
2022/09/12 23:55:48;;;;;;;7.03;1.65;;;;;;;;;;10377395;28;20026;-54
